createdAt,value
2018-12-02T00:01:56.203Z,1.53
2018-12-02T00:04:26.955Z,1.50
2018-12-02T00:06:56.214Z,1.50
2018-12-02T00:09:25.484Z,1.40
2018-12-02T00:11:54.683Z,1.40
2018-12-02T00:14:23.919Z,1.40
2018-12-02T00:16:53.995Z,1.30
2018-12-02T00:19:23.235Z,1.33
2018-12-02T00:21:52.828Z,1.40
2018-12-02T00:24:22.045Z,1.43
2018-12-02T00:26:51.227Z,1.30
2018-12-02T00:29:22.332Z,1.20
2018-12-02T00:31:51.576Z,1.20
2018-12-02T00:34:20.819Z,1.10
2018-12-02T00:36:50.074Z,1.10
2018-12-02T00:39:19.245Z,1.30
2018-12-02T00:41:49.371Z,1.40
2018-12-02T00:44:18.618Z,1.13
2018-12-02T00:46:47.798Z,1.10
2018-12-02T00:49:17.047Z,1.40
2018-12-02T00:51:47.180Z,1.17
2018-12-02T00:54:17.354Z,1.20
2018-12-02T00:56:46.964Z,1.23
2018-12-02T00:59:16.327Z,1.10
2018-12-02T01:01:45.528Z,1.10
2018-12-02T01:04:14.739Z,1.20
2018-12-02T01:06:44.935Z,1.03
2018-12-02T01:09:14.143Z,0.83
2018-12-02T01:11:43.430Z,1.00
2018-12-02T01:14:13.801Z,1.13
2018-12-02T01:16:42.999Z,1.00
2018-12-02T01:19:13.611Z,1.10
2018-12-02T01:21:42.798Z,1.00
2018-12-02T01:24:11.975Z,1.10
2018-12-02T01:26:41.252Z,1.00
2018-12-02T01:29:10.495Z,1.20
2018-12-02T01:31:40.602Z,1.10
2018-12-02T01:34:09.794Z,1.10
2018-12-02T01:36:38.990Z,1.10
2018-12-02T01:39:09.012Z,1.00
2018-12-02T01:41:38.258Z,1.10
2018-12-02T01:44:09.806Z,1.00
2018-12-02T01:46:38.972Z,1.00
2018-12-02T01:49:08.202Z,1.00
2018-12-02T01:51:38.779Z,1.03
2018-12-02T01:54:08.084Z,1.00
2018-12-02T01:56:37.838Z,0.90
2018-12-02T01:59:07.483Z,1.00
2018-12-02T02:01:36.660Z,1.00
2018-12-02T02:04:06.247Z,1.00
2018-12-02T02:06:36.763Z,0.80
2018-12-02T02:09:09.180Z,1.00
2018-12-02T02:11:39.419Z,1.00
2018-12-02T02:14:08.621Z,1.00
2018-12-02T02:16:38.271Z,1.00
2018-12-02T02:19:07.515Z,0.90
2018-12-02T02:21:37.222Z,0.80
2018-12-02T02:24:06.735Z,0.80
2018-12-02T02:26:36.666Z,0.80
2018-12-02T02:29:07.252Z,1.00
2018-12-02T02:31:36.444Z,0.97
2018-12-02T02:34:06.658Z,0.80
2018-12-02T02:36:35.836Z,0.90
2018-12-02T02:39:07.705Z,0.70
2018-12-02T02:41:37.100Z,0.97
2018-12-02T02:44:06.307Z,0.70
2018-12-02T02:46:36.012Z,1.00
2018-12-02T02:49:05.359Z,0.70
2018-12-02T02:51:35.464Z,0.77
2018-12-02T02:54:04.930Z,0.70
2018-12-02T02:56:34.076Z,0.80
2018-12-02T02:59:03.826Z,0.70
2018-12-02T03:01:33.222Z,0.60
2018-12-02T03:04:03.119Z,0.83
2018-12-02T03:06:32.324Z,0.70
2018-12-02T03:09:02.631Z,0.70
2018-12-02T03:11:32.263Z,0.83
2018-12-02T03:14:01.473Z,0.70
2018-12-02T03:16:32.411Z,0.80
2018-12-02T03:19:01.574Z,0.70
2018-12-02T03:21:30.809Z,0.87
2018-12-02T03:24:00.443Z,0.80
2018-12-02T03:26:29.595Z,0.80
2018-12-02T03:28:59.334Z,0.80
2018-12-02T03:31:28.527Z,0.70
2018-12-02T03:33:57.767Z,0.70
2018-12-02T03:36:27.663Z,0.70
2018-12-02T03:38:56.864Z,0.90
2018-12-02T03:41:27.720Z,0.80
2018-12-02T03:43:56.876Z,0.67
2018-12-02T03:46:27.349Z,0.70
2018-12-02T03:48:57.004Z,0.70
2018-12-02T03:51:27.118Z,0.70
2018-12-02T03:53:57.138Z,0.80
2018-12-02T03:56:26.307Z,0.70
2018-12-02T03:58:55.495Z,0.73
2018-12-02T04:01:25.001Z,0.70
2018-12-02T04:03:56.415Z,0.80
2018-12-02T04:06:25.591Z,0.70
2018-12-02T04:08:54.815Z,0.90
2018-12-02T04:11:23.979Z,0.90
2018-12-02T04:13:53.114Z,0.80
2018-12-02T04:16:23.108Z,0.80
2018-12-02T04:18:52.294Z,0.80
2018-12-02T04:21:21.453Z,0.70
2018-12-02T04:23:51.263Z,0.80
2018-12-02T04:26:20.451Z,0.80
2018-12-02T04:28:51.497Z,0.83
2018-12-02T04:31:20.772Z,0.90
2018-12-02T04:33:49.905Z,0.80
2018-12-02T04:36:19.144Z,0.83
2018-12-02T04:38:48.344Z,1.13
2018-12-02T04:41:18.428Z,0.80
2018-12-02T04:43:47.670Z,0.93
2018-12-02T04:46:18.170Z,1.20
2018-12-02T04:48:47.354Z,0.97
2018-12-02T04:51:16.530Z,1.20
2018-12-02T04:53:47.478Z,1.03
2018-12-02T04:56:16.712Z,1.10
2018-12-02T04:58:45.926Z,1.13
2018-12-02T05:01:15.256Z,1.20
2018-12-02T05:03:44.411Z,1.03
2018-12-02T05:06:14.557Z,0.80
2018-12-02T05:08:43.799Z,0.90
2018-12-02T05:11:13.003Z,0.80
2018-12-02T05:13:42.159Z,1.00
2018-12-02T05:16:11.345Z,0.90
2018-12-02T05:18:41.923Z,0.80
2018-12-02T05:21:11.116Z,1.00
2018-12-02T05:23:41.620Z,0.90
2018-12-02T05:26:10.775Z,1.03
2018-12-02T05:28:40.464Z,1.00
2018-12-02T05:31:10.152Z,0.70
2018-12-02T05:33:39.338Z,0.90
2018-12-02T05:36:08.479Z,0.90
2018-12-02T05:38:37.775Z,0.80
2018-12-02T05:41:08.515Z,0.93
2018-12-02T05:43:37.721Z,0.90
2018-12-02T05:46:08.588Z,0.73
2018-12-02T05:48:37.749Z,1.00
2018-12-02T05:51:07.559Z,1.00
2018-12-02T05:53:37.266Z,0.97
2018-12-02T05:56:06.567Z,0.80
2018-12-02T05:58:35.737Z,0.97
2018-12-02T06:01:05.235Z,1.00
2018-12-02T06:03:35.787Z,0.90
2018-12-02T06:06:05.017Z,0.83
2018-12-02T06:08:34.712Z,0.80
2018-12-02T06:11:03.910Z,1.03
2018-12-02T06:13:33.098Z,1.00
2018-12-02T06:16:03.387Z,0.90
2018-12-02T06:18:32.570Z,0.80
2018-12-02T06:21:01.872Z,0.90
2018-12-02T06:23:32.096Z,1.00
2018-12-02T06:26:01.294Z,0.90
2018-12-02T06:28:32.072Z,1.00
2018-12-02T06:31:01.374Z,1.03
2018-12-02T06:33:30.590Z,0.73
2018-12-02T06:35:59.800Z,0.80
2018-12-02T06:38:29.055Z,0.90
2018-12-02T06:40:59.215Z,0.70
2018-12-02T06:43:28.482Z,0.80
2018-12-02T06:45:58.675Z,0.87
2018-12-02T06:48:27.867Z,0.70
2018-12-02T06:50:57.143Z,0.70
2018-12-02T06:53:28.371Z,0.70
2018-12-02T06:56:16.636Z,0.73
2018-12-02T06:58:59.800Z,0.80
2018-12-02T07:03:44.125Z,0.80
2018-12-02T07:06:13.413Z,0.90
2018-12-02T07:08:43.493Z,0.90
2018-12-02T07:11:12.672Z,0.80
2018-12-02T07:13:42.418Z,0.90
2018-12-02T07:16:12.041Z,0.70
2018-12-02T07:18:42.005Z,0.90
2018-12-02T07:21:17.346Z,0.80
2018-12-02T07:23:51.163Z,0.70
2018-12-02T07:26:21.000Z,0.80
2018-12-02T07:28:50.197Z,0.70
2018-12-02T07:31:19.571Z,0.83
2018-12-02T07:34:04.319Z,0.83
2018-12-02T07:36:54.215Z,0.90
2018-12-02T07:39:54.779Z,0.80
2018-12-02T07:42:23.940Z,0.90
2018-12-02T07:44:54.835Z,0.80
2018-12-02T07:47:24.546Z,0.70
2018-12-02T07:49:53.711Z,0.77
2018-12-02T07:52:22.871Z,1.10
2018-12-02T07:54:52.688Z,1.00
2018-12-02T07:57:22.414Z,0.90
2018-12-02T07:59:52.044Z,0.97
2018-12-02T08:02:21.368Z,0.87
2018-12-02T08:04:50.569Z,1.00
2018-12-02T08:07:19.810Z,1.00
2018-12-02T08:09:50.239Z,0.80
2018-12-02T08:12:19.878Z,0.97
2018-12-02T08:14:49.059Z,0.90
2018-12-02T08:17:18.833Z,1.13
2018-12-02T08:19:48.001Z,0.97
2018-12-02T08:22:17.716Z,0.90
2018-12-02T08:24:47.332Z,1.00
2018-12-02T08:27:16.485Z,1.00
2018-12-02T08:29:45.679Z,0.90
2018-12-02T08:32:14.899Z,0.80
2018-12-02T08:34:45.812Z,0.83
2018-12-02T08:37:15.484Z,0.80
2018-12-02T08:39:44.661Z,1.00
2018-12-02T08:42:13.844Z,0.93
2018-12-02T08:44:43.243Z,1.30
2018-12-02T08:47:12.941Z,1.20
2018-12-02T08:49:42.653Z,1.00
2018-12-02T08:52:11.927Z,1.00
2018-12-02T08:54:41.126Z,1.03
2018-12-02T08:57:10.319Z,1.10
2018-12-02T08:59:40.593Z,1.33
2018-12-02T09:02:10.167Z,1.10
2018-12-02T09:04:39.395Z,0.90
2018-12-02T09:07:08.599Z,0.90
2018-12-02T09:09:37.757Z,1.00
2018-12-02T09:12:07.889Z,0.83
2018-12-02T09:14:37.817Z,0.80
2018-12-02T09:17:07.168Z,0.80
2018-12-02T09:19:36.348Z,0.97
2018-12-02T09:22:08.924Z,0.90
2018-12-02T09:24:39.843Z,0.80
2018-12-02T09:27:09.015Z,0.70
2018-12-02T09:29:38.302Z,1.60
2018-12-02T09:32:07.548Z,1.50
2018-12-02T09:34:37.683Z,0.93
2018-12-02T09:37:07.173Z,0.83
2018-12-02T09:39:36.348Z,0.70
2018-12-02T09:42:05.853Z,0.70
2018-12-02T09:44:35.647Z,0.70
2018-12-02T09:47:07.043Z,0.70
2018-12-02T09:49:36.411Z,0.80
2018-12-02T09:52:06.172Z,0.70
2018-12-02T09:54:35.395Z,0.90
2018-12-02T09:57:05.399Z,1.00
2018-12-02T09:59:35.574Z,0.80
2018-12-02T10:02:05.171Z,1.00
2018-12-02T10:04:34.461Z,0.80
2018-12-02T10:07:03.651Z,0.90
2018-12-02T10:09:33.192Z,0.90
2018-12-02T10:12:02.905Z,0.90
2018-12-02T10:14:32.235Z,0.90
2018-12-02T10:17:01.433Z,0.93
2018-12-02T10:19:31.935Z,1.13
2018-12-02T10:22:01.543Z,1.33
2018-12-02T10:24:31.100Z,1.20
2018-12-02T10:27:00.357Z,1.20
2018-12-02T10:29:29.485Z,1.47
2018-12-02T10:31:59.943Z,1.20
2018-12-02T10:34:30.494Z,1.50
2018-12-02T10:37:00.158Z,1.33
2018-12-02T10:39:29.408Z,1.50
2018-12-02T10:41:58.897Z,1.40
2018-12-02T10:44:28.068Z,1.50
2018-12-02T10:46:58.518Z,1.43
2018-12-02T10:49:27.437Z,1.67
2018-12-02T10:51:56.677Z,1.60
2018-12-02T10:54:25.850Z,1.70
2018-12-02T10:56:56.715Z,2.17
2018-12-02T10:59:27.379Z,1.57
2018-12-02T11:02:04.175Z,1.50
2018-12-02T11:04:33.448Z,1.37
2018-12-02T11:07:02.666Z,1.37
2018-12-02T11:09:32.371Z,1.47
2018-12-02T11:12:02.085Z,1.60
2018-12-02T11:14:31.270Z,1.43
2018-12-02T11:17:01.619Z,1.40
2018-12-02T11:19:32.181Z,1.80
2018-12-02T11:22:01.856Z,1.50
2018-12-02T11:24:31.117Z,1.43
2018-12-02T11:27:00.319Z,1.60
2018-12-02T11:29:29.525Z,1.50
2018-12-02T11:31:59.740Z,1.67
2018-12-02T11:34:28.905Z,1.43
2018-12-02T11:36:58.097Z,1.40
2018-12-02T11:39:27.451Z,1.50
2018-12-02T11:41:56.744Z,1.57
2018-12-02T11:44:27.990Z,1.40
2018-12-02T11:46:57.438Z,1.60
2018-12-02T11:49:26.595Z,1.60
2018-12-02T11:51:55.809Z,1.50
2018-12-02T11:54:25.008Z,1.57
2018-12-02T11:56:55.150Z,1.30
2018-12-02T11:59:24.445Z,1.63
2018-12-02T12:01:53.675Z,1.13
2018-12-02T12:04:22.891Z,1.40
2018-12-02T12:06:52.088Z,1.80
2018-12-02T12:09:23.414Z,1.20
2018-12-02T12:11:52.611Z,1.40
2018-12-02T12:14:22.002Z,1.40
2018-12-02T12:16:51.209Z,1.30
2018-12-02T12:19:20.527Z,1.40
2018-12-02T12:21:50.753Z,1.30
2018-12-02T12:24:19.936Z,1.57
2018-12-02T12:26:49.115Z,1.90
2018-12-02T12:29:18.353Z,2.90
2018-12-02T12:31:47.534Z,2.10
2018-12-02T12:34:18.579Z,2.43
2018-12-02T12:36:47.796Z,4.33
2018-12-02T12:39:16.968Z,2.97
2018-12-02T12:41:46.308Z,2.20
2018-12-02T12:44:15.581Z,11.43
2018-12-02T12:46:45.736Z,3.50
2018-12-02T12:49:14.916Z,2.37
2018-12-02T12:51:45.057Z,3.17
2018-12-02T12:54:14.244Z,4.90
2018-12-02T12:56:43.436Z,5.20
2018-12-02T12:59:14.012Z,4.83
2018-12-02T13:01:43.207Z,6.53
2018-12-02T13:04:12.514Z,2.70
2018-12-02T13:06:41.860Z,3.77
2018-12-02T13:09:11.023Z,2.37
2018-12-02T13:11:41.959Z,3.73
2018-12-02T13:14:12.663Z,7.23
2018-12-02T13:16:41.861Z,3.17
2018-12-02T13:19:11.045Z,7.17
2018-12-02T13:21:41.584Z,7.30
2018-12-02T13:24:11.638Z,3.10
2018-12-02T13:26:40.886Z,2.70
2018-12-02T13:29:10.401Z,2.30
2018-12-02T13:31:39.589Z,4.60
2018-12-02T13:34:08.824Z,4.40
2018-12-02T13:36:39.050Z,3.40
2018-12-02T13:39:10.606Z,6.83
2018-12-02T13:41:39.829Z,2.13
2018-12-02T13:44:09.188Z,2.17
2018-12-02T13:46:38.871Z,2.03
2018-12-02T13:49:09.399Z,1.80
2018-12-02T13:51:38.789Z,2.40
2018-12-02T13:54:13.258Z,2.13
2018-12-02T13:56:43.087Z,3.13
2018-12-02T13:59:12.267Z,2.23
2018-12-02T14:01:41.532Z,2.00
2018-12-02T14:04:11.672Z,1.80
2018-12-02T14:06:40.965Z,2.10
2018-12-02T14:09:11.604Z,1.90
2018-12-02T14:11:40.874Z,2.30
2018-12-02T14:14:10.931Z,2.00
2018-12-02T14:17:00.980Z,1.90
2018-12-02T14:19:34.309Z,1.83
2018-12-02T14:22:00.317Z,1.70
2018-12-02T14:24:30.890Z,1.73
2018-12-02T14:27:00.142Z,2.10
2018-12-02T14:29:36.471Z,2.20
2018-12-02T14:32:10.031Z,2.40
2018-12-02T14:34:39.399Z,2.60
2018-12-02T14:37:08.607Z,2.70
2018-12-02T14:39:38.829Z,2.40
2018-12-02T14:42:08.173Z,3.00
2018-12-02T14:44:37.590Z,2.70
2018-12-02T14:47:06.978Z,2.80
2018-12-02T14:49:36.419Z,2.40
2018-12-02T14:52:07.852Z,2.87
2018-12-02T14:54:37.179Z,3.03
2018-12-02T14:57:06.416Z,5.07
2018-12-02T14:59:35.600Z,3.80
2018-12-02T15:02:04.836Z,3.43
2018-12-02T15:04:34.915Z,2.90
2018-12-02T15:07:04.160Z,2.77
2018-12-02T15:09:33.443Z,2.37
2018-12-02T15:12:02.656Z,2.50
2018-12-02T15:14:31.833Z,2.30
2018-12-02T15:17:04.162Z,2.03
2018-12-02T15:19:33.439Z,3.00
2018-12-02T15:22:02.736Z,2.40
2018-12-02T15:24:32.083Z,2.47
2018-12-02T15:27:01.684Z,2.17
2018-12-02T15:29:31.334Z,2.33
2018-12-02T15:32:00.665Z,3.07
2018-12-02T15:34:29.823Z,3.20
2018-12-02T15:36:59.027Z,2.80
2018-12-02T15:39:29.729Z,2.73
2018-12-02T15:41:58.931Z,4.63
2018-12-02T15:44:28.120Z,3.60
2018-12-02T15:46:57.357Z,4.73
2018-12-02T15:49:26.660Z,6.87
2018-12-02T15:51:57.285Z,8.67
2018-12-02T15:54:26.551Z,8.77
2018-12-02T15:56:55.823Z,8.53
2018-12-02T15:59:25.022Z,7.33
2018-12-02T16:01:54.396Z,6.27
2018-12-02T16:04:25.436Z,4.93
2018-12-02T16:06:54.742Z,5.70
2018-12-02T16:09:24.533Z,6.67
2018-12-02T16:11:54.061Z,5.43
2018-12-02T16:14:23.699Z,5.13
2018-12-02T16:16:53.588Z,5.40
2018-12-02T16:19:22.752Z,5.53
2018-12-02T16:21:51.968Z,5.50
2018-12-02T16:24:22.980Z,5.43
2018-12-02T16:26:53.282Z,4.37
2018-12-02T16:29:22.484Z,3.67
2018-12-02T16:31:51.828Z,2.90
2018-12-02T16:34:21.600Z,4.40
2018-12-02T16:36:50.216Z,4.40
2018-12-02T16:39:20.520Z,4.40
2018-12-02T16:41:49.758Z,4.10
2018-12-02T16:44:18.974Z,3.47
2018-12-02T16:46:49.623Z,4.00
2018-12-02T16:49:18.847Z,3.30
2018-12-02T16:51:50.239Z,3.60
2018-12-02T16:54:19.679Z,3.07
2018-12-02T16:56:49.083Z,3.43
2018-12-02T16:59:34.054Z,3.40
2018-12-02T17:02:06.711Z,5.37
2018-12-02T17:04:36.027Z,5.60
2018-12-02T17:07:05.431Z,7.33
2018-12-02T17:09:34.711Z,7.30
2018-12-02T17:12:05.966Z,7.50
2018-12-02T17:14:38.731Z,8.43
2018-12-02T17:17:05.216Z,7.87
2018-12-02T17:19:34.459Z,6.77
2018-12-02T17:22:03.665Z,6.80
2018-12-02T17:24:33.574Z,5.70
2018-12-02T17:27:03.384Z,5.63
2018-12-02T17:29:32.628Z,5.30
2018-12-02T17:32:10.880Z,5.37
2018-12-02T17:34:41.856Z,5.17
2018-12-02T17:37:12.590Z,4.73
2018-12-02T17:39:45.934Z,4.03
2018-12-02T17:42:15.685Z,4.60
2018-12-02T17:44:45.440Z,5.03
2018-12-02T17:47:15.050Z,4.70
2018-12-02T17:49:44.734Z,4.90
2018-12-02T17:52:14.067Z,4.90
2018-12-02T17:54:43.299Z,4.73
2018-12-02T17:57:13.972Z,3.80
2018-12-02T17:59:43.820Z,6.90
2018-12-02T18:02:13.138Z,5.00
2018-12-02T18:04:42.445Z,4.10
2018-12-02T18:07:11.692Z,4.00
2018-12-02T18:09:41.351Z,3.60
2018-12-02T18:12:11.163Z,3.97
2018-12-02T18:14:40.403Z,4.20
2018-12-02T18:17:09.721Z,4.30
2018-12-02T18:19:39.083Z,6.50
2018-12-02T18:22:10.208Z,4.87
2018-12-02T18:24:41.520Z,5.10
2018-12-02T18:27:10.816Z,5.63
2018-12-02T18:29:40.074Z,6.13
2018-12-02T18:32:09.932Z,5.30
2018-12-02T18:34:39.791Z,4.30
2018-12-02T18:37:11.414Z,4.50
2018-12-02T18:39:40.698Z,4.13
2018-12-02T18:42:10.604Z,3.97
2018-12-02T18:44:41.255Z,4.57
2018-12-02T18:47:12.037Z,4.30
2018-12-02T18:49:41.302Z,3.53
2018-12-02T18:52:10.604Z,4.57
2018-12-02T18:54:40.748Z,3.10
2018-12-02T18:57:09.510Z,3.00
2018-12-02T18:59:38.851Z,2.43
2018-12-02T19:02:08.354Z,2.80
2018-12-02T19:04:37.687Z,2.93
2018-12-02T19:07:08.782Z,2.37
2018-12-02T19:09:38.319Z,2.20
2018-12-02T19:12:07.843Z,2.53
2018-12-02T19:14:37.434Z,3.83
2018-12-02T19:17:06.834Z,2.90
2018-12-02T19:19:36.888Z,2.43
2018-12-02T19:22:07.282Z,2.03
2018-12-02T19:24:36.567Z,1.90
2018-12-02T19:27:07.467Z,2.10
2018-12-02T19:29:37.771Z,1.90
2018-12-02T19:32:07.046Z,1.83
2018-12-02T19:34:36.354Z,2.00
2018-12-02T19:37:08.088Z,2.50
2018-12-02T19:39:37.809Z,2.10
2018-12-02T19:42:08.172Z,3.60
2018-12-02T19:44:37.439Z,2.77
2018-12-02T19:47:07.177Z,8.13
2018-12-02T19:49:36.405Z,5.87
2018-12-02T19:52:07.252Z,10.27
2018-12-02T19:54:36.729Z,10.30
2018-12-02T19:57:06.479Z,12.60
2018-12-02T19:59:36.012Z,8.17
2018-12-02T20:02:06.126Z,13.93
2018-12-02T20:04:36.762Z,15.40
2018-12-02T20:07:06.487Z,10.13
2018-12-02T20:09:35.932Z,10.20
2018-12-02T20:12:05.778Z,13.00
2018-12-02T20:14:36.261Z,8.33
2018-12-02T20:17:05.746Z,11.80
2018-12-02T20:19:40.546Z,6.00
2018-12-02T20:22:09.757Z,5.77
2018-12-02T20:24:41.783Z,6.20
2018-12-02T20:27:12.280Z,5.20
2018-12-02T20:29:41.493Z,3.47
2018-12-02T20:32:12.242Z,5.17
2018-12-02T20:34:42.390Z,7.60
2018-12-02T20:37:11.577Z,5.67
2018-12-02T20:39:43.085Z,3.70
2018-12-02T20:42:12.292Z,4.40
2018-12-02T20:44:41.953Z,15.93
2018-12-02T20:47:11.263Z,12.43
2018-12-02T20:49:40.456Z,16.93
2018-12-02T20:52:10.072Z,10.93
2018-12-02T20:54:39.286Z,3.23
2018-12-02T20:57:10.289Z,3.57
2018-12-02T20:59:39.455Z,2.73
2018-12-02T21:02:08.703Z,2.80
2018-12-02T21:04:37.973Z,2.70
2018-12-02T21:07:07.205Z,2.83
2018-12-02T21:09:37.264Z,2.77
2018-12-02T21:12:06.675Z,2.80
2018-12-02T21:14:35.964Z,2.90
2018-12-02T21:17:06.215Z,2.80
2018-12-02T21:19:35.396Z,2.80
2018-12-02T21:22:06.909Z,3.10
2018-12-02T21:24:36.143Z,3.43
2018-12-02T21:27:05.717Z,3.57
2018-12-02T21:29:35.052Z,3.97
2018-12-02T21:32:04.878Z,4.00
2018-12-02T21:34:34.610Z,3.53
2018-12-02T21:37:03.884Z,3.10
2018-12-02T21:39:33.091Z,4.30
2018-12-02T21:42:02.290Z,4.47
2018-12-02T21:44:33.649Z,3.70
2018-12-02T21:47:02.947Z,3.47
2018-12-02T21:49:32.127Z,3.93
2018-12-02T21:52:01.513Z,4.47
2018-12-02T21:54:30.698Z,3.63
2018-12-02T21:57:00.951Z,3.77
2018-12-02T21:59:30.164Z,5.10
2018-12-02T22:01:59.686Z,3.53
2018-12-02T22:04:28.931Z,4.97
2018-12-02T22:06:58.339Z,5.40
2018-12-02T22:09:30.286Z,4.70
2018-12-02T22:11:59.528Z,3.53
2018-12-02T22:14:28.907Z,6.17
2018-12-02T22:16:58.237Z,14.17
2018-12-02T22:19:27.963Z,4.13
2018-12-02T22:21:57.664Z,6.03
2018-12-02T22:24:26.920Z,4.63
2018-12-02T22:26:56.118Z,6.07
2018-12-02T22:29:25.300Z,14.33
2018-12-02T22:31:55.968Z,14.37
2018-12-02T22:34:25.139Z,11.90
2018-12-02T22:36:54.374Z,4.80
2018-12-02T22:39:23.649Z,5.20
2018-12-02T22:41:52.819Z,17.87
2018-12-02T22:44:23.151Z,4.10
2018-12-02T22:46:52.849Z,5.20
2018-12-02T22:49:22.052Z,8.27
2018-12-02T22:51:51.287Z,9.17
2018-12-02T22:54:20.503Z,4.63
2018-12-02T22:56:51.190Z,6.40
2018-12-02T22:59:20.398Z,4.17
2018-12-02T23:01:56.627Z,3.00
2018-12-02T23:04:25.924Z,3.57
2018-12-02T23:06:56.014Z,2.40
2018-12-02T23:09:25.332Z,2.53
2018-12-02T23:11:54.606Z,2.50
2018-12-02T23:14:23.852Z,2.80
2018-12-02T23:17:06.734Z,2.30
2018-12-02T23:19:35.995Z,2.63
2018-12-02T23:22:05.193Z,3.00
2018-12-02T23:24:34.393Z,2.90
2018-12-02T23:27:04.292Z,2.67
2018-12-02T23:29:35.822Z,2.80
2018-12-02T23:32:05.973Z,2.90
2018-12-02T23:34:35.178Z,2.30
2018-12-02T23:37:04.563Z,2.40
2018-12-02T23:39:33.738Z,2.30
2018-12-02T23:42:03.534Z,2.27
2018-12-02T23:44:32.797Z,1.90
2018-12-02T23:47:01.937Z,1.57
2018-12-02T23:49:32.833Z,1.30
2018-12-02T23:52:02.132Z,1.50
2018-12-02T23:54:31.709Z,0.90
2018-12-02T23:57:00.895Z,1.00
2018-12-02T23:59:30.087Z,0.80
